Time;durP1;ratioP1;P1;durP2;ratioP2;P2;SDS_P1;SDS_P2;PMS_P1;PMS_P2;Temp;Humidity;BMP_temperature;BMP_pressure;BME280_temperature;BME280_humidity;BME280_pressure;Samples;Min_cycle;Max_cycle;Signal;HPM_P1;HPM_P2
2022/03/17 00:00:24;;;;;;;23.03;16.47;;;9.10;99.90;;;;;;4926677;28;20565;-75
2022/03/17 00:02:49;;;;;;;23.37;16.67;;;9.10;99.90;;;;;;4926503;28;20190;-75
2022/03/17 00:05:15;;;;;;;23.30;17.23;;;9.10;99.90;;;;;;4926311;28;20687;-75
2022/03/17 00:07:43;;;;;;;25.60;17.70;;;9.20;99.90;;;;;;4942436;28;20189;-75
2022/03/17 00:10:14;;;;;;;26.67;18.13;;;9.10;99.90;;;;;;4958219;28;20211;-75
2022/03/17 00:12:44;;;;;;;23.93;18.17;;;9.10;99.90;;;;;;4975322;28;20638;-75
2022/03/17 00:15:10;;;;;;;22.87;16.87;;;9.00;99.90;;;;;;4958120;28;20207;-75
2022/03/17 00:17:37;;;;;;;25.00;17.53;;;8.90;99.90;;;;;;4958119;28;20174;-75
2022/03/17 00:20:03;;;;;;;22.87;17.10;;;8.90;99.90;;;;;;4957967;28;20185;-75
2022/03/17 00:22:29;;;;;;;23.90;16.93;;;8.90;99.90;;;;;;4941856;28;20182;-75
2022/03/17 00:24:55;;;;;;;22.47;16.60;;;9.00;99.90;;;;;;4957966;28;20217;-75
2022/03/17 00:27:21;;;;;;;23.37;16.73;;;9.00;99.90;;;;;;4958248;28;20248;-75
2022/03/17 00:29:50;;;;;;;22.60;16.63;;;9.10;99.90;;;;;;4957901;28;20262;-75
2022/03/17 00:32:16;;;;;;;22.40;15.97;;;9.00;99.90;;;;;;4942144;28;20182;-75
2022/03/17 00:39:52;;;;;;;22.47;16.73;;;8.90;99.90;;;;;;4997135;22;20237;-74
2022/03/17 00:42:19;;;;;;;23.67;17.10;;;8.80;99.90;;;;;;4941468;28;20180;-74
2022/03/17 00:44:46;;;;;;;21.90;16.83;;;8.90;99.90;;;;;;4941556;28;20312;-74
2022/03/17 00:47:13;;;;;;;23.63;17.27;;;8.80;99.90;;;;;;4957559;28;20303;-74
2022/03/17 00:49:39;;;;;;;22.67;17.27;;;8.80;99.90;;;;;;4992355;28;20687;-74
2022/03/17 00:52:09;;;;;;;24.07;17.80;;;8.80;99.90;;;;;;4960660;28;20188;-74
2022/03/17 00:54:36;;;;;;;24.40;17.03;;;8.80;99.90;;;;;;4961417;28;20657;-74
2022/03/17 00:57:02;;;;;;;23.07;16.43;;;8.80;99.90;;;;;;4960662;28;20178;-74
2022/03/17 00:59:27;;;;;;;22.70;16.57;;;8.80;99.90;;;;;;4960340;28;20195;-75
2022/03/17 01:01:53;;;;;;;23.63;16.47;;;8.90;99.90;;;;;;4960434;28;20185;-74
2022/03/17 01:04:19;;;;;;;21.70;16.50;;;8.90;99.90;;;;;;4944555;28;20284;-74
2022/03/17 01:06:45;;;;;;;22.10;16.87;;;8.90;99.90;;;;;;4993875;28;20751;-74
2022/03/17 01:09:11;;;;;;;24.37;17.03;;;8.90;99.90;;;;;;4976622;28;20197;-74
2022/03/17 01:11:36;;;;;;;22.80;16.27;;;8.90;99.90;;;;;;4960212;28;20241;-74
2022/03/17 01:14:02;;;;;;;21.77;16.07;;;8.80;99.90;;;;;;4976504;28;20211;-74
2022/03/17 01:16:27;;;;;;;20.67;16.13;;;8.70;99.90;;;;;;4976287;28;20202;-74
2022/03/17 01:18:53;;;;;;;20.13;15.10;;;8.70;99.90;;;;;;4960049;28;20251;-75
2022/03/17 01:21:18;;;;;;;22.93;16.40;;;8.70;99.90;;;;;;4960214;28;20306;-74
2022/03/17 01:23:44;;;;;;;20.57;15.63;;;8.70;99.90;;;;;;4960271;28;20181;-74
2022/03/17 01:26:10;;;;;;;21.20;16.10;;;8.70;99.90;;;;;;4993585;28;20193;-74
2022/03/17 01:28:35;;;;;;;23.63;16.40;;;8.70;99.90;;;;;;4959878;28;20204;-74
2022/03/17 01:31:01;;;;;;;22.47;16.13;;;8.70;99.90;;;;;;4975903;28;20259;-74
2022/03/17 01:33:26;;;;;;;22.87;15.63;;;8.70;99.90;;;;;;4959935;28;20239;-74
2022/03/17 01:35:52;;;;;;;21.23;15.57;;;8.80;99.90;;;;;;4944237;28;20182;-75
2022/03/17 01:38:18;;;;;;;21.70;16.13;;;8.70;99.90;;;;;;4959943;28;20576;-74
2022/03/17 01:40:43;;;;;;;20.40;15.27;;;8.90;99.90;;;;;;4959808;28;20184;-74
2022/03/17 01:43:09;;;;;;;19.13;15.23;;;8.90;99.90;;;;;;4959610;28;20183;-74
2022/03/17 01:45:35;;;;;;;21.80;16.23;;;8.80;99.90;;;;;;4975837;28;20185;-74
2022/03/17 01:48:00;;;;;;;20.27;15.97;;;8.70;99.90;;;;;;4975992;28;20200;-75
2022/03/17 01:50:27;;;;;;;20.37;15.87;;;8.70;99.90;;;;;;4959510;28;20244;-74
2022/03/17 01:52:53;;;;;;;21.93;15.60;;;8.70;99.90;;;;;;4975649;28;20178;-74
2022/03/17 01:55:18;;;;;;;19.87;14.90;;;8.80;99.90;;;;;;4959571;28;20567;-74
2022/03/17 01:57:45;;;;;;;19.60;15.67;;;8.80;99.90;;;;;;4959225;28;20295;-75
2022/03/17 02:00:14;;;;;;;22.93;15.80;;;8.80;99.90;;;;;;4975516;28;20195;-75
2022/03/17 02:02:41;;;;;;;20.50;15.47;;;8.80;99.90;;;;;;4959870;28;20229;-74
2022/03/17 02:05:07;;;;;;;20.33;15.87;;;8.80;99.90;;;;;;4975499;28;20183;-75
2022/03/17 02:07:33;;;;;;;21.70;15.87;;;8.80;99.90;;;;;;4959655;28;20275;-74
2022/03/17 02:09:59;;;;;;;21.83;16.90;;;8.80;99.90;;;;;;4959279;28;20306;-75
2022/03/17 02:15:10;;;;;;;21.13;16.43;;;8.80;99.90;;;;;;4978522;28;20191;-74
2022/03/17 02:17:40;;;;;;;21.57;16.80;;;8.70;99.90;;;;;;4959241;28;20564;-74
2022/03/17 02:20:09;;;;;;;23.97;17.20;;;8.80;99.90;;;;;;4975920;28;20184;-74
2022/03/17 02:22:40;;;;;;;23.17;17.10;;;8.70;99.90;;;;;;4975055;28;20233;-74
2022/03/17 02:27:50;;;;;;;21.03;16.30;;;8.60;99.90;;;;;;4964681;28;20738;-74
2022/03/17 02:30:18;;;;;;;22.17;16.20;;;8.60;99.90;;;;;;4975436;28;20700;-74
2022/03/17 02:32:45;;;;;;;23.30;16.40;;;8.60;99.90;;;;;;4958986;28;20182;-74
2022/03/17 02:35:14;;;;;;;22.07;16.33;;;8.50;99.90;;;;;;4959194;28;20180;-74
2022/03/17 02:37:40;;;;;;;21.47;16.53;;;8.50;99.90;;;;;;4959258;28;20187;-75
2022/03/17 02:40:08;;;;;;;20.63;15.97;;;8.50;99.90;;;;;;4992712;28;20165;-74
2022/03/17 02:42:37;;;;;;;23.40;17.40;;;8.50;99.90;;;;;;4992529;28;20173;-75
2022/03/17 02:45:04;;;;;;;22.70;16.93;;;8.60;99.90;;;;;;4975262;28;20267;-75
2022/03/17 02:47:30;;;;;;;23.43;17.23;;;8.60;99.90;;;;;;4958862;28;20182;-74
2022/03/17 02:49:56;;;;;;;21.57;16.70;;;8.70;99.90;;;;;;4958994;28;20266;-74
2022/03/17 02:52:26;;;;;;;21.13;16.20;;;8.70;99.90;;;;;;4958904;28;20185;-74
2022/03/17 02:54:52;;;;;;;20.00;15.33;;;8.60;99.90;;;;;;4975097;28;20167;-74
2022/03/17 02:57:19;;;;;;;21.77;16.40;;;8.60;99.90;;;;;;4959049;28;20643;-74
2022/03/17 02:59:46;;;;;;;21.43;16.17;;;8.60;99.90;;;;;;4975209;28;20535;-74
2022/03/17 03:02:14;;;;;;;22.10;16.63;;;8.70;99.90;;;;;;4959027;28;20267;-74
2022/03/17 03:04:40;;;;;;;22.57;16.50;;;8.60;99.90;;;;;;4975365;28;20172;-75
2022/03/17 03:07:06;;;;;;;22.03;15.87;;;8.60;99.90;;;;;;4959203;28;20640;-74
2022/03/17 03:09:32;;;;;;;23.47;16.97;;;8.60;99.90;;;;;;4961539;28;20278;-74
2022/03/17 03:11:58;;;;;;;22.47;16.30;;;8.50;99.90;;;;;;4962531;28;20178;-74
2022/03/17 03:14:24;;;;;;;22.30;16.47;;;8.50;99.90;;;;;;4978864;28;20244;-75
2022/03/17 03:16:50;;;;;;;22.23;16.93;;;8.60;99.90;;;;;;4978534;28;20173;-74
2022/03/17 03:19:16;;;;;;;20.93;16.70;;;8.60;99.90;;;;;;4978631;28;20189;-75
2022/03/17 03:21:45;;;;;;;21.53;15.70;;;8.50;99.90;;;;;;4978319;28;20180;-75
2022/03/17 03:24:12;;;;;;;22.37;16.60;;;8.50;99.90;;;;;;4978307;28;20183;-74
2022/03/17 03:26:38;;;;;;;22.00;16.43;;;8.60;99.90;;;;;;4962549;28;20687;-75
2022/03/17 03:29:06;;;;;;;21.40;16.40;;;8.60;99.90;;;;;;4962404;28;20201;-74
2022/03/17 03:31:34;;;;;;;23.33;16.73;;;8.60;99.90;;;;;;4946649;28;20216;-74
2022/03/17 03:33:59;;;;;;;22.93;16.83;;;8.60;99.90;;;;;;4946773;28;20270;-74
2022/03/17 03:39:09;;;;;;;22.23;16.40;;;8.50;99.90;;;;;;4980991;28;20282;-74
2022/03/17 03:41:34;;;;;;;22.13;16.33;;;8.60;99.90;;;;;;4946327;28;20194;-74
2022/03/17 03:44:00;;;;;;;21.47;16.47;;;8.60;99.90;;;;;;4946001;28;20280;-74
2022/03/17 03:46:26;;;;;;;21.93;16.63;;;8.60;99.90;;;;;;4962115;28;20175;-74
2022/03/17 03:48:52;;;;;;;22.77;17.67;;;8.50;99.90;;;;;;4945954;28;20224;-74
2022/03/17 03:51:18;;;;;;;22.13;17.03;;;8.50;99.90;;;;;;4961660;28;20231;-74
2022/03/17 03:56:29;;;;;;;23.10;16.93;;;8.50;99.90;;;;;;4967221;28;20187;-74
2022/03/17 03:58:55;;;;;;;22.67;17.20;;;8.40;99.90;;;;;;4962279;28;20224;-74
2022/03/17 04:01:20;;;;;;;24.40;17.50;;;8.40;99.90;;;;;;4977702;28;20183;-74
2022/03/17 04:03:46;;;;;;;23.10;17.13;;;8.30;99.90;;;;;;4945772;28;20202;-74
2022/03/17 04:06:14;;;;;;;23.20;16.93;;;8.40;99.90;;;;;;4961775;28;20235;-74
2022/03/17 04:08:40;;;;;;;22.87;17.17;;;8.30;99.90;;;;;;4946254;28;20201;-74
2022/03/17 04:11:05;;;;;;;23.73;17.57;;;8.40;99.90;;;;;;4961056;28;20564;-74
2022/03/17 04:13:31;;;;;;;25.87;18.07;;;8.40;99.90;;;;;;4945300;28;20168;-74
2022/03/17 04:15:57;;;;;;;24.03;17.37;;;8.30;99.90;;;;;;4961589;28;20542;-75
2022/03/17 04:18:22;;;;;;;22.93;17.90;;;8.30;99.90;;;;;;4945272;28;20196;-74
2022/03/17 04:20:48;;;;;;;25.17;17.13;;;8.40;99.90;;;;;;4945044;28;20233;-74
2022/03/17 04:23:14;;;;;;;24.60;17.57;;;8.30;99.90;;;;;;4945355;28;20669;-74
2022/03/17 04:25:39;;;;;;;23.53;17.90;;;8.30;99.90;;;;;;4961150;28;20322;-75
2022/03/17 04:28:05;;;;;;;22.93;17.33;;;8.30;99.90;;;;;;4961293;28;20671;-75
2022/03/17 04:30:33;;;;;;;22.67;17.20;;;8.30;99.90;;;;;;4945061;28;20298;-74
2022/03/17 04:32:58;;;;;;;25.00;18.13;;;8.30;99.90;;;;;;4994434;28;20172;-74
2022/03/17 04:35:25;;;;;;;24.77;18.10;;;8.30;99.90;;;;;;4945173;28;20172;-74
2022/03/17 04:37:50;;;;;;;22.80;17.00;;;8.30;99.90;;;;;;4961027;28;20678;-74
2022/03/17 04:40:16;;;;;;;24.13;18.17;;;8.30;99.90;;;;;;4944971;28;20176;-74
2022/03/17 04:42:42;;;;;;;23.90;17.43;;;8.30;99.90;;;;;;4960629;28;20323;-74
2022/03/17 04:45:08;;;;;;;25.13;17.50;;;8.30;99.90;;;;;;4960865;28;20179;-74
2022/03/17 04:47:34;;;;;;;24.07;17.60;;;8.30;99.90;;;;;;4960860;28;20179;-75
2022/03/17 04:49:59;;;;;;;22.30;18.03;;;8.20;99.90;;;;;;4960703;28;20204;-74
2022/03/17 04:55:09;;;;;;;24.63;17.70;;;8.20;99.90;;;;;;4966027;28;20184;-74
2022/03/17 04:57:34;;;;;;;24.33;18.07;;;8.30;99.90;;;;;;4960783;28;20201;-74
2022/03/17 05:00:00;;;;;;;24.97;18.33;;;8.30;99.90;;;;;;4960745;28;20661;-74
2022/03/17 05:02:26;;;;;;;21.73;17.77;;;8.30;99.90;;;;;;4960350;28;20174;-74
2022/03/17 05:04:52;;;;;;;24.00;17.77;;;8.30;99.90;;;;;;4960501;28;20184;-74
2022/03/17 05:07:19;;;;;;;24.00;18.77;;;8.30;99.90;;;;;;4960724;28;20639;-74
2022/03/17 05:09:44;;;;;;;26.73;17.47;;;8.30;99.90;;;;;;4976450;28;20203;-74
2022/03/17 05:12:11;;;;;;;25.43;18.63;;;8.40;99.90;;;;;;4944502;28;20191;-74
2022/03/17 05:14:36;;;;;;;24.00;18.73;;;8.40;99.90;;;;;;4944703;28;20183;-75
2022/03/17 05:17:03;;;;;;;25.30;18.23;;;8.40;99.90;;;;;;4976490;28;20172;-74
2022/03/17 05:19:28;;;;;;;26.03;19.20;;;8.50;99.90;;;;;;4944346;28;20630;-75
2022/03/17 05:21:54;;;;;;;24.50;18.23;;;8.50;99.90;;;;;;4944158;28;20192;-74
2022/03/17 05:24:19;;;;;;;27.70;18.77;;;8.50;99.90;;;;;;4944160;28;20214;-74
2022/03/17 05:26:45;;;;;;;24.97;18.00;;;8.50;99.90;;;;;;4976411;28;20188;-75
2022/03/17 05:29:12;;;;;;;25.70;17.90;;;8.50;99.90;;;;;;4960166;28;20658;-74
2022/03/17 05:31:38;;;;;;;24.30;18.07;;;8.50;99.90;;;;;;4943387;28;20212;-74
2022/03/17 05:34:03;;;;;;;24.70;18.33;;;8.50;99.90;;;;;;4976080;28;20255;-75
2022/03/17 05:36:29;;;;;;;25.37;18.20;;;8.50;99.90;;;;;;4959994;28;20602;-75
2022/03/17 05:38:55;;;;;;;22.73;17.97;;;8.40;99.90;;;;;;4959859;28;20219;-75
2022/03/17 05:41:22;;;;;;;25.30;18.40;;;8.40;99.90;;;;;;4959576;28;20435;-75
2022/03/17 05:43:47;;;;;;;22.80;17.77;;;8.40;99.90;;;;;;4993231;28;20184;-75
2022/03/17 05:46:14;;;;;;;24.63;18.40;;;8.40;99.90;;;;;;4959921;28;20187;-75
2022/03/17 05:48:40;;;;;;;24.27;17.80;;;8.40;99.90;;;;;;4959773;28;20297;-75
2022/03/17 05:51:06;;;;;;;22.70;17.23;;;8.50;99.90;;;;;;4959805;28;20220;-75
2022/03/17 05:53:32;;;;;;;27.47;18.23;;;8.50;99.90;;;;;;4959748;28;20581;-75
2022/03/17 05:55:57;;;;;;;27.53;19.23;;;8.50;99.90;;;;;;4960186;28;20183;-77
2022/03/17 05:58:23;;;;;;;23.63;18.17;;;8.50;99.90;;;;;;4976239;28;20654;-74
2022/03/17 06:00:48;;;;;;;25.13;18.70;;;8.40;99.90;;;;;;4944155;28;20179;-73
2022/03/17 06:03:14;;;;;;;23.50;17.10;;;8.50;99.90;;;;;;4959999;28;20563;-74
2022/03/17 06:05:40;;;;;;;22.73;17.80;;;8.50;99.90;;;;;;4944451;28;20183;-73
2022/03/17 06:08:05;;;;;;;26.20;19.07;;;8.60;99.90;;;;;;4960104;28;20257;-74
2022/03/17 06:10:33;;;;;;;25.50;18.10;;;8.50;99.90;;;;;;4960375;28;20219;-74
2022/03/17 06:13:00;;;;;;;24.30;18.00;;;8.50;99.90;;;;;;4960278;28;20639;-73
2022/03/17 06:15:27;;;;;;;26.20;18.03;;;8.50;99.90;;;;;;4960083;28;20187;-74
2022/03/17 06:17:58;;;;;;;24.93;17.93;;;8.50;99.90;;;;;;4960133;28;20287;-74
2022/03/17 06:20:29;;;;;;;24.50;17.73;;;8.50;99.90;;;;;;4960329;28;20180;-73
2022/03/17 06:22:58;;;;;;;25.80;18.07;;;8.60;99.90;;;;;;4960737;28;20183;-73
2022/03/17 06:25:26;;;;;;;24.13;17.40;;;8.60;99.90;;;;;;4959595;28;20198;-74
2022/03/17 06:27:52;;;;;;;23.40;17.10;;;8.50;99.90;;;;;;4993133;28;20200;-74
2022/03/17 06:30:19;;;;;;;25.03;19.03;;;8.60;99.90;;;;;;4975163;28;20294;-74
2022/03/17 06:32:46;;;;;;;23.37;17.60;;;8.50;99.90;;;;;;4959309;28;20179;-74
2022/03/17 06:35:17;;;;;;;24.43;17.87;;;8.50;99.90;;;;;;4975389;28;20271;-74
2022/03/17 06:37:44;;;;;;;22.93;17.27;;;8.50;99.90;;;;;;4943726;28;20180;-74
2022/03/17 06:40:11;;;;;;;23.87;17.10;;;8.50;99.90;;;;;;4976044;28;20198;-75
2022/03/17 06:42:36;;;;;;;23.20;17.47;;;8.60;99.90;;;;;;4993619;28;20227;-76
2022/03/17 06:45:02;;;;;;;24.57;16.83;;;8.60;99.90;;;;;;4979332;28;20176;-74
2022/03/17 06:47:28;;;;;;;22.80;17.13;;;8.60;99.90;;;;;;4979440;28;20192;-74
2022/03/17 06:57:40;;;;;;;23.33;16.90;;;8.70;99.90;;;;;;6153555;23;20420;-74
2022/03/17 07:00:09;;;;;;;23.37;16.23;;;8.70;99.90;;;;;;4975107;28;20206;-76
2022/03/17 07:02:34;;;;;;;21.37;16.40;;;8.60;99.90;;;;;;4959634;28;20185;-74
2022/03/17 07:05:00;;;;;;;23.50;17.33;;;8.70;99.90;;;;;;4943768;28;20196;-77
2022/03/17 07:07:27;;;;;;;22.87;16.97;;;8.70;99.90;;;;;;4957943;28;20604;-75
2022/03/17 07:09:53;;;;;;;22.73;16.53;;;8.70;99.90;;;;;;4975759;28;20195;-75
2022/03/17 07:12:19;;;;;;;24.57;17.83;;;8.80;99.90;;;;;;4926622;28;20177;-75
2022/03/17 07:14:44;;;;;;;24.87;18.00;;;8.70;99.90;;;;;;4991257;23;20715;-73
2022/03/17 07:17:10;;;;;;;24.23;16.80;;;8.70;99.90;;;;;;4995465;28;20601;-76
2022/03/17 07:19:36;;;;;;;23.03;17.33;;;8.60;99.90;;;;;;5011561;28;20188;-74
2022/03/17 07:22:03;;;;;;;23.43;16.63;;;8.60;99.90;;;;;;4994883;28;20186;-74
2022/03/17 07:24:28;;;;;;;21.83;16.47;;;8.60;99.90;;;;;;5011468;28;20208;-73
2022/03/17 07:26:54;;;;;;;25.37;17.93;;;8.70;99.90;;;;;;4978624;28;20235;-74
2022/03/17 07:29:20;;;;;;;22.60;16.83;;;8.70;99.90;;;;;;4978631;28;20652;-74
2022/03/17 07:31:46;;;;;;;22.23;16.63;;;8.70;99.90;;;;;;4994435;28;20243;-73
2022/03/17 07:34:12;;;;;;;24.10;17.30;;;8.80;99.90;;;;;;4994879;28;20200;-73
2022/03/17 07:36:40;;;;;;;23.17;16.80;;;8.80;99.90;;;;;;4994946;28;20209;-73
2022/03/17 07:39:06;;;;;;;23.77;17.23;;;8.80;99.90;;;;;;4995943;28;20178;-73
2022/03/17 07:41:32;;;;;;;22.23;16.97;;;8.80;99.90;;;;;;4978459;28;20230;-74
2022/03/17 07:43:59;;;;;;;22.50;17.00;;;8.80;99.90;;;;;;4978222;28;20213;-73
2022/03/17 07:46:26;;;;;;;21.70;16.53;;;8.90;99.90;;;;;;4978612;28;20208;-73
2022/03/17 07:48:52;;;;;;;23.17;16.83;;;8.90;99.90;;;;;;4978728;28;20275;-74
2022/03/17 07:51:19;;;;;;;22.03;16.80;;;8.90;99.90;;;;;;4994658;28;20287;-74
2022/03/17 07:53:45;;;;;;;28.60;17.03;;;8.90;99.90;;;;;;4993602;28;20192;-74
2022/03/17 07:56:12;;;;;;;23.63;17.00;;;8.90;99.90;;;;;;4978050;28;20307;-73
2022/03/17 07:58:39;;;;;;;22.53;17.03;;;9.00;99.90;;;;;;4978512;28;20178;-73
2022/03/17 08:01:05;;;;;;;21.70;17.23;;;8.90;99.90;;;;;;4994427;28;20188;-73
2022/03/17 08:03:31;;;;;;;23.70;16.93;;;9.00;99.90;;;;;;4994571;28;20348;-73
2022/03/17 08:05:57;;;;;;;21.80;16.57;;;9.00;99.90;;;;;;4977925;28;20188;-73
2022/03/17 08:08:23;;;;;;;22.53;17.43;;;9.00;99.90;;;;;;4994076;28;20214;-74
2022/03/17 08:10:49;;;;;;;21.90;16.10;;;9.10;99.90;;;;;;4994952;28;20196;-74
2022/03/17 08:13:15;;;;;;;22.53;16.57;;;9.20;99.90;;;;;;4993432;28;20209;-74
2022/03/17 08:15:41;;;;;;;22.10;16.50;;;9.20;99.90;;;;;;4977753;28;20265;-74
2022/03/17 08:18:08;;;;;;;24.23;16.83;;;9.30;99.90;;;;;;4977738;28;20321;-74
2022/03/17 08:20:42;;;;;;;31.93;22.77;;;9.40;99.90;;;;;;4977637;28;20207;-75
2022/03/17 08:23:09;;;;;;;36.57;23.60;;;10.10;99.90;;;;;;4994602;28;20277;-73
2022/03/17 08:25:35;;;;;;;23.80;18.57;;;11.60;99.90;;;;;;4993592;28;20178;-74
2022/03/17 08:28:03;;;;;;;26.93;18.73;;;12.10;99.90;;;;;;4977369;28;20278;-75
2022/03/17 08:30:38;;;;;;;23.63;18.10;;;11.80;99.90;;;;;;4977763;28;20199;-75
2022/03/17 08:33:04;;;;;;;25.07;19.13;;;11.40;99.90;;;;;;4977897;28;20195;-74
2022/03/17 08:35:29;;;;;;;34.47;27.73;;;12.10;99.90;;;;;;4994648;28;20650;-74
2022/03/17 08:37:57;;;;;;;30.30;22.90;;;12.50;99.90;;;;;;4977042;28;20254;-74
2022/03/17 08:40:23;;;;;;;24.07;18.23;;;12.90;99.90;;;;;;4977471;28;20188;-75
2022/03/17 08:42:48;;;;;;;20.87;17.37;;;13.30;99.90;;;;;;4976975;28;20183;-75
2022/03/17 08:50:44;;;;;;;23.67;18.00;;;12.30;99.90;;;;;;4994408;28;20831;-73
2022/03/17 08:53:10;;;;;;;22.73;17.90;;;12.20;99.90;;;;;;4992898;28;20277;-74
2022/03/17 08:55:36;;;;;;;22.00;17.07;;;12.40;99.90;;;;;;4976980;28;20229;-75
2022/03/17 08:58:06;;;;;;;21.50;17.47;;;12.70;99.90;;;;;;4992955;28;20176;-74
2022/03/17 09:00:34;;;;;;;21.47;17.17;;;12.40;99.90;;;;;;4977280;28;20189;-74
2022/03/17 09:03:03;;;;;;;22.53;18.37;;;12.30;99.90;;;;;;4976773;28;20655;-74
2022/03/17 09:05:33;;;;;;;22.30;17.60;;;12.00;99.90;;;;;;4977219;28;20178;-74
2022/03/17 09:08:00;;;;;;;23.47;18.50;;;11.60;99.90;;;;;;4977446;28;20203;-74
2022/03/17 09:10:26;;;;;;;26.30;18.97;;;11.30;99.90;;;;;;4993188;28;20199;-74
2022/03/17 09:12:57;;;;;;;23.87;18.37;;;10.80;99.90;;;;;;4993669;28;20175;-74
2022/03/17 09:15:24;;;;;;;23.40;17.87;;;10.60;99.90;;;;;;4977300;28;20191;-75
2022/03/17 09:17:50;;;;;;;22.37;17.50;;;10.80;99.90;;;;;;4992706;28;20226;-81
2022/03/17 09:20:16;;;;;;;23.23;17.83;;;10.70;99.90;;;;;;4992699;28;20186;-74
2022/03/17 09:22:45;;;;;;;23.17;18.00;;;10.80;99.90;;;;;;4994021;28;20174;-74
2022/03/17 09:25:12;;;;;;;24.97;18.53;;;10.70;99.90;;;;;;4992464;28;20172;-72
2022/03/17 09:27:38;;;;;;;21.43;17.17;;;10.90;99.90;;;;;;4992460;28;20180;-73
2022/03/17 09:30:05;;;;;;;21.80;17.77;;;10.90;99.90;;;;;;4976089;28;20251;-72
2022/03/17 09:32:31;;;;;;;23.10;17.30;;;11.40;99.90;;;;;;4975835;28;20183;-72
2022/03/17 09:34:58;;;;;;;21.50;16.83;;;11.20;99.90;;;;;;4976250;28;20736;-72
2022/03/17 09:37:25;;;;;;;22.53;17.67;;;11.40;99.90;;;;;;4992096;28;20222;-72
2022/03/17 09:39:50;;;;;;;21.33;16.80;;;11.70;99.90;;;;;;4992367;28;20183;-72
2022/03/17 09:42:18;;;;;;;22.07;16.97;;;11.50;99.90;;;;;;4975724;28;20181;-72
2022/03/17 09:44:52;;;;;;;24.13;19.93;;;11.40;99.90;;;;;;4975716;28;20552;-72
2022/03/17 09:47:20;;;;;;;24.67;18.50;;;11.80;99.90;;;;;;4976879;28;20185;-72
2022/03/17 09:49:52;;;;;;;23.73;19.87;;;11.90;99.90;;;;;;4991984;28;20329;-72
2022/03/17 09:52:20;;;;;;;22.47;18.13;;;11.60;99.90;;;;;;4976610;28;20184;-72
2022/03/17 09:54:47;;;;;;;20.60;16.43;;;11.40;99.90;;;;;;4993249;28;20207;-73
2022/03/17 09:57:16;;;;;;;22.20;16.87;;;11.30;99.90;;;;;;4976574;28;20183;-74
2022/03/17 09:59:49;;;;;;;22.10;17.23;;;11.10;99.90;;;;;;4992786;28;20182;-74
2022/03/17 10:02:16;;;;;;;22.40;17.33;;;11.10;99.90;;;;;;4992506;28;20160;-75
2022/03/17 10:04:47;;;;;;;19.97;16.27;;;11.00;99.90;;;;;;4975996;28;20573;-74
2022/03/17 10:07:14;;;;;;;24.10;16.90;;;11.00;99.90;;;;;;4977063;28;20191;-74
2022/03/17 10:09:42;;;;;;;23.33;17.07;;;11.00;99.90;;;;;;4976041;28;20184;-74
2022/03/17 10:12:23;;;;;;;23.93;17.73;;;10.90;99.90;;;;;;4976623;28;20642;-74
2022/03/17 10:14:52;;;;;;;23.60;17.80;;;10.90;99.90;;;;;;4975975;28;20214;-74
2022/03/17 10:17:36;;;;;;;23.07;18.13;;;10.90;99.90;;;;;;4992141;28;20176;-74
2022/03/17 10:20:24;;;;;;;23.67;17.13;;;11.00;99.90;;;;;;4993320;28;20156;-75
2022/03/17 10:22:54;;;;;;;24.33;17.70;;;11.10;99.90;;;;;;4975868;28;20238;-74
2022/03/17 10:25:22;;;;;;;22.27;16.97;;;11.20;99.90;;;;;;4976322;28;20223;-74
2022/03/17 10:27:54;;;;;;;21.63;16.10;;;11.20;99.90;;;;;;4976201;28;20182;-74
2022/03/17 10:30:32;;;;;;;21.90;17.53;;;11.20;99.90;;;;;;4991998;28;20566;-74
2022/03/17 10:33:14;;;;;;;25.90;18.53;;;11.30;99.90;;;;;;4976430;28;20619;-74
2022/03/17 10:35:45;;;;;;;29.20;20.70;;;11.30;99.90;;;;;;4976330;28;20263;-75
2022/03/17 10:38:16;;;;;;;24.63;18.33;;;11.40;99.90;;;;;;4991912;28;20163;-74
2022/03/17 10:40:43;;;;;;;23.70;17.03;;;11.40;99.90;;;;;;4992125;28;20246;-74
2022/03/17 10:43:24;;;;;;;26.00;17.83;;;11.60;99.90;;;;;;4975570;28;20203;-74
2022/03/17 10:46:12;;;;;;;24.57;17.87;;;11.70;99.90;;;;;;4991836;28;20195;-74
2022/03/17 10:49:00;;;;;;;23.97;17.90;;;12.00;99.90;;;;;;4992008;28;20180;-74
2022/03/17 10:51:40;;;;;;;25.20;17.87;;;12.30;99.90;;;;;;4991867;28;20553;-73
2022/03/17 10:54:11;;;;;;;22.97;17.17;;;13.10;99.90;;;;;;4976263;28;20462;-73
2022/03/17 10:56:38;;;;;;;23.47;18.03;;;13.50;99.90;;;;;;4992708;28;20529;-74
2022/03/17 10:59:07;;;;;;;22.50;17.87;;;13.40;99.90;;;;;;4992664;28;20225;-73
2022/03/17 11:01:45;;;;;;;27.90;18.00;;;13.40;99.90;;;;;;4992915;28;20652;-74
2022/03/17 11:04:11;;;;;;;23.60;17.80;;;13.20;99.90;;;;;;4977135;28;20196;-74
2022/03/17 11:06:38;;;;;;;24.13;17.67;;;12.90;99.90;;;;;;4976956;28;20184;-74
2022/03/17 11:09:08;;;;;;;26.30;20.13;;;12.60;99.90;;;;;;4993016;28;20179;-73
2022/03/17 11:11:37;;;;;;;531.90;277.13;;;12.40;99.90;;;;;;4992573;28;20250;-74
2022/03/17 11:14:04;;;;;;;119.33;58.17;;;12.70;99.90;;;;;;4992070;28;20294;-74
2022/03/17 11:16:43;;;;;;;136.00;67.73;;;12.70;99.90;;;;;;4975710;28;20183;-74
2022/03/17 11:19:12;;;;;;;421.00;203.80;;;12.50;99.90;;;;;;4993102;28;20523;-74
2022/03/17 11:21:39;;;;;;;40.63;25.17;;;12.40;99.90;;;;;;4975649;28;20202;-74
2022/03/17 11:24:05;;;;;;;23.80;19.27;;;12.10;99.90;;;;;;4975343;28;20200;-74
2022/03/17 11:26:34;;;;;;;218.97;111.57;;;12.00;99.90;;;;;;4991636;28;20180;-73
2022/03/17 11:29:08;;;;;;;24.63;19.23;;;12.00;99.90;;;;;;4991573;28;20175;-74
2022/03/17 11:31:57;;;;;;;46.27;28.57;;;12.00;99.90;;;;;;4995050;28;20196;-73
2022/03/17 11:34:37;;;;;;;36.03;24.07;;;12.00;99.90;;;;;;4994925;28;20226;-74
2022/03/17 11:37:15;;;;;;;38.67;25.43;;;12.00;99.90;;;;;;4994977;28;20173;-74
2022/03/17 11:39:57;;;;;;;26.90;19.07;;;12.10;99.90;;;;;;4996119;28;20638;-74
2022/03/17 11:42:37;;;;;;;28.43;19.87;;;12.20;99.90;;;;;;4978956;28;20171;-74
2022/03/17 11:45:15;;;;;;;27.57;19.80;;;12.20;99.90;;;;;;4994793;28;20738;-74
2022/03/17 11:47:56;;;;;;;28.30;19.93;;;12.30;99.90;;;;;;4996011;28;20233;-74
2022/03/17 11:50:23;;;;;;;28.77;20.97;;;12.10;99.90;;;;;;4978613;28;20195;-73
2022/03/17 11:52:59;;;;;;;26.20;19.77;;;13.00;99.90;;;;;;4994440;28;20175;-73
2022/03/17 11:55:57;;;;;;;23.03;18.13;;;12.70;99.90;;;;;;4994910;28;20634;-73
2022/03/17 11:58:39;;;;;;;23.87;18.43;;;12.20;99.90;;;;;;4994300;28;20277;-73
2022/03/17 12:01:30;;;;;;;22.93;18.10;;;11.80;99.90;;;;;;4978543;28;20723;-73
2022/03/17 12:04:06;;;;;;;27.63;19.37;;;11.60;99.90;;;;;;4994694;28;20695;-73
2022/03/17 12:06:35;;;;;;;25.17;18.50;;;11.40;99.90;;;;;;4995625;28;20254;-73
2022/03/17 12:09:11;;;;;;;27.07;19.33;;;11.30;99.90;;;;;;4978284;28;20167;-73
2022/03/17 12:11:44;;;;;;;23.17;18.10;;;11.20;99.90;;;;;;4978143;28;20294;-73
2022/03/17 12:14:25;;;;;;;24.97;18.17;;;11.10;99.90;;;;;;4978233;28;20238;-73
2022/03/17 12:16:57;;;;;;;24.53;18.77;;;11.10;99.90;;;;;;4994634;28;20197;-73
2022/03/17 12:19:36;;;;;;;24.30;18.33;;;11.00;99.90;;;;;;4995406;28;20619;-73
2022/03/17 12:22:05;;;;;;;28.30;19.50;;;10.90;99.90;;;;;;4994020;28;20180;-73
2022/03/17 12:24:58;;;;;;;24.03;18.83;;;10.80;99.90;;;;;;4994069;28;20199;-73
2022/03/17 12:27:35;;;;;;;27.00;19.43;;;10.70;99.90;;;;;;4989952;28;20194;-73
2022/03/17 12:30:04;;;;;;;28.67;19.53;;;10.60;99.90;;;;;;4977987;28;20258;-73
2022/03/17 12:32:33;;;;;;;27.00;20.20;;;10.50;99.90;;;;;;4993622;28;20226;-73
2022/03/17 12:34:59;;;;;;;23.97;19.53;;;10.40;99.90;;;;;;4978016;28;20200;-73
2022/03/17 12:37:30;;;;;;;25.47;19.70;;;10.30;99.90;;;;;;4993878;28;20171;-73
2022/03/17 12:39:58;;;;;;;30.53;20.70;;;10.30;99.90;;;;;;4993507;28;20264;-73
2022/03/17 12:42:27;;;;;;;27.57;20.67;;;10.20;99.90;;;;;;4993594;28;20179;-74
2022/03/17 12:44:55;;;;;;;28.93;21.33;;;10.20;99.90;;;;;;4977557;28;20227;-73
2022/03/17 12:47:23;;;;;;;27.70;20.93;;;10.10;99.90;;;;;;4994032;28;20249;-74
2022/03/17 12:49:49;;;;;;;27.30;20.77;;;10.10;99.90;;;;;;4994151;28;20712;-75
2022/03/17 12:52:34;;;;;;;28.50;21.30;;;10.00;99.90;;;;;;4994066;28;20187;-74
2022/03/17 12:55:03;;;;;;;29.80;22.17;;;9.90;99.90;;;;;;4993480;28;20198;-74
2022/03/17 12:57:30;;;;;;;29.73;21.83;;;9.90;99.90;;;;;;4977518;28;20233;-74
2022/03/17 12:59:57;;;;;;;28.97;21.20;;;9.80;99.90;;;;;;4977341;28;20634;-74
2022/03/17 13:02:24;;;;;;;30.90;21.97;;;9.80;99.90;;;;;;4977249;28;20233;-74
2022/03/17 13:04:53;;;;;;;30.13;22.53;;;9.80;99.90;;;;;;4993601;28;20199;-74
2022/03/17 13:07:20;;;;;;;30.73;22.80;;;9.80;99.90;;;;;;4977011;28;20188;-74
2022/03/17 13:09:47;;;;;;;30.50;23.43;;;9.70;99.90;;;;;;4993142;28;20261;-74